sensor_id;sensor_type;location;lat;lon;timestamp;temperature;humidity
33673;DHT22;20011;51.510;9.942;2022-09-12T00:02:17;14.40;99.90
33673;DHT22;20011;51.510;9.942;2022-09-12T00:04:44;14.20;99.90
33673;DHT22;20011;51.510;9.942;2022-09-12T00:07:11;14.20;99.90
33673;DHT22;20011;51.510;9.942;2022-09-12T00:09:39;14.10;99.90
33673;DHT22;20011;51.510;9.942;2022-09-12T00:12:06;14.10;99.90
33673;DHT22;20011;51.510;9.942;2022-09-12T00:14:34;14.10;99.90
33673;DHT22;20011;51.510;9.942;2022-09-12T00:17:01;14.20;99.90
33673;DHT22;20011;51.510;9.942;2022-09-12T00:19:29;14.10;99.90
33673;DHT22;20011;51.510;9.942;2022-09-12T00:21:56;14.10;99.90
33673;DHT22;20011;51.510;9.942;2022-09-12T00:24:23;14.10;99.90
33673;DHT22;20011;51.510;9.942;2022-09-12T00:26:50;14.10;99.90
33673;DHT22;20011;51.510;9.942;2022-09-12T00:29:20;14.10;99.90
33673;DHT22;20011;51.510;9.942;2022-09-12T00:31:47;14.10;99.90
33673;DHT22;20011;51.510;9.942;2022-09-12T00:34:15;14.10;99.90
33673;DHT22;20011;51.510;9.942;2022-09-12T00:36:43;14.00;99.90
33673;DHT22;20011;51.510;9.942;2022-09-12T00:39:14;14.00;99.90
33673;DHT22;20011;51.510;9.942;2022-09-12T00:41:43;14.00;99.90
33673;DHT22;20011;51.510;9.942;2022-09-12T00:49:28;14.00;99.90
33673;DHT22;20011;51.510;9.942;2022-09-12T00:52:06;14.00;99.90
33673;DHT22;20011;51.510;9.942;2022-09-12T00:54:49;14.00;99.90
33673;DHT22;20011;51.510;9.942;2022-09-12T00:57:21;14.00;99.90
33673;DHT22;20011;51.510;9.942;2022-09-12T00:59:52;14.00;99.90
33673;DHT22;20011;51.510;9.942;2022-09-12T01:02:20;13.90;99.90
33673;DHT22;20011;51.510;9.942;2022-09-12T01:04:47;13.80;99.90
33673;DHT22;20011;51.510;9.942;2022-09-12T01:07:15;13.80;99.90
33673;DHT22;20011;51.510;9.942;2022-09-12T01:09:43;13.70;99.90
33673;DHT22;20011;51.510;9.942;2022-09-12T01:12:14;13.70;99.90
33673;DHT22;20011;51.510;9.942;2022-09-12T01:14:41;13.70;99.90
33673;DHT22;20011;51.510;9.942;2022-09-12T01:17:13;13.70;99.90
33673;DHT22;20011;51.510;9.942;2022-09-12T01:28:16;13.70;99.90
33673;DHT22;20011;51.510;9.942;2022-09-12T01:31:09;13.70;99.90
33673;DHT22;20011;51.510;9.942;2022-09-12T01:36:52;13.60;99.90
33673;DHT22;20011;51.510;9.942;2022-09-12T01:42:27;13.60;99.90
33673;DHT22;20011;51.510;9.942;2022-09-12T01:47:38;13.60;99.90
33673;DHT22;20011;51.510;9.942;2022-09-12T01:50:12;13.60;99.90
33673;DHT22;20011;51.510;9.942;2022-09-12T01:55:43;13.60;99.90
33673;DHT22;20011;51.510;9.942;2022-09-12T01:58:16;13.50;99.90
33673;DHT22;20011;51.510;9.942;2022-09-12T02:00:54;13.60;99.90
33673;DHT22;20011;51.510;9.942;2022-09-12T02:03:26;13.60;99.90
33673;DHT22;20011;51.510;9.942;2022-09-12T02:06:00;13.60;99.90
33673;DHT22;20011;51.510;9.942;2022-09-12T02:08:54;13.50;99.90
33673;DHT22;20011;51.510;9.942;2022-09-12T02:11:24;13.50;99.90
33673;DHT22;20011;51.510;9.942;2022-09-12T02:14:07;13.40;99.90
33673;DHT22;20011;51.510;9.942;2022-09-12T02:16:45;13.40;99.90
33673;DHT22;20011;51.510;9.942;2022-09-12T02:19:19;13.40;99.90
33673;DHT22;20011;51.510;9.942;2022-09-12T02:21:59;13.30;99.90
33673;DHT22;20011;51.510;9.942;2022-09-12T02:24:35;13.30;99.90
33673;DHT22;20011;51.510;9.942;2022-09-12T02:27:14;13.40;99.90
33673;DHT22;20011;51.510;9.942;2022-09-12T02:29:43;13.20;99.90
33673;DHT22;20011;51.510;9.942;2022-09-12T02:40:18;13.20;99.90
33673;DHT22;20011;51.510;9.942;2022-09-12T02:42:45;13.20;99.90
33673;DHT22;20011;51.510;9.942;2022-09-12T02:45:12;13.20;99.90
33673;DHT22;20011;51.510;9.942;2022-09-12T02:47:47;13.20;99.90
33673;DHT22;20011;51.510;9.942;2022-09-12T02:50:15;13.20;99.90
33673;DHT22;20011;51.510;9.942;2022-09-12T02:52:43;13.30;99.90
33673;DHT22;20011;51.510;9.942;2022-09-12T02:55:11;13.30;99.90
33673;DHT22;20011;51.510;9.942;2022-09-12T02:57:39;13.20;99.90
33673;DHT22;20011;51.510;9.942;2022-09-12T03:00:07;13.30;99.90
33673;DHT22;20011;51.510;9.942;2022-09-12T03:05:31;13.30;99.90
33673;DHT22;20011;51.510;9.942;2022-09-12T03:08:36;13.30;99.90
33673;DHT22;20011;51.510;9.942;2022-09-12T03:17:08;13.10;99.90
33673;DHT22;20011;51.510;9.942;2022-09-12T03:22:37;13.20;99.90
33673;DHT22;20011;51.510;9.942;2022-09-12T03:28:04;13.20;99.90
33673;DHT22;20011;51.510;9.942;2022-09-12T03:30:40;13.20;99.90
33673;DHT22;20011;51.510;9.942;2022-09-12T03:33:16;13.20;99.90
33673;DHT22;20011;51.510;9.942;2022-09-12T03:35:44;13.20;99.90
33673;DHT22;20011;51.510;9.942;2022-09-12T03:38:12;13.30;99.90
33673;DHT22;20011;51.510;9.942;2022-09-12T03:40:39;13.30;99.90
33673;DHT22;20011;51.510;9.942;2022-09-12T03:43:08;13.30;99.90
33673;DHT22;20011;51.510;9.942;2022-09-12T03:45:36;13.40;99.90
33673;DHT22;20011;51.510;9.942;2022-09-12T03:48:04;13.50;99.90
33673;DHT22;20011;51.510;9.942;2022-09-12T03:50:32;13.40;99.90
33673;DHT22;20011;51.510;9.942;2022-09-12T03:53:00;13.40;99.90
33673;DHT22;20011;51.510;9.942;2022-09-12T03:55:27;13.40;99.90
33673;DHT22;20011;51.510;9.942;2022-09-12T03:57:54;13.40;99.90
33673;DHT22;20011;51.510;9.942;2022-09-12T04:00:21;13.40;99.90
33673;DHT22;20011;51.510;9.942;2022-09-12T04:02:52;13.30;99.90
33673;DHT22;20011;51.510;9.942;2022-09-12T04:05:20;13.30;99.90
33673;DHT22;20011;51.510;9.942;2022-09-12T04:07:47;13.30;99.90
33673;DHT22;20011;51.510;9.942;2022-09-12T04:10:14;13.30;99.90
33673;DHT22;20011;51.510;9.942;2022-09-12T04:12:42;13.20;99.90
33673;DHT22;20011;51.510;9.942;2022-09-12T04:15:09;13.30;99.90
33673;DHT22;20011;51.510;9.942;2022-09-12T04:17:37;13.40;99.90
33673;DHT22;20011;51.510;9.942;2022-09-12T04:20:04;13.30;99.90
33673;DHT22;20011;51.510;9.942;2022-09-12T04:22:32;13.30;99.90
33673;DHT22;20011;51.510;9.942;2022-09-12T04:24:59;13.40;99.90
33673;DHT22;20011;51.510;9.942;2022-09-12T04:27:26;13.40;99.90
33673;DHT22;20011;51.510;9.942;2022-09-12T04:29:54;13.40;99.90
33673;DHT22;20011;51.510;9.942;2022-09-12T04:32:21;13.30;99.90
33673;DHT22;20011;51.510;9.942;2022-09-12T04:34:48;13.40;99.90
33673;DHT22;20011;51.510;9.942;2022-09-12T04:37:15;13.30;99.90
33673;DHT22;20011;51.510;9.942;2022-09-12T04:39:42;13.30;99.90
33673;DHT22;20011;51.510;9.942;2022-09-12T04:42:09;13.30;99.90
33673;DHT22;20011;51.510;9.942;2022-09-12T04:44:36;13.20;99.90
33673;DHT22;20011;51.510;9.942;2022-09-12T04:47:03;13.20;99.90
33673;DHT22;20011;51.510;9.942;2022-09-12T04:49:30;13.20;99.90
33673;DHT22;20011;51.510;9.942;2022-09-12T04:51:57;13.20;99.90
33673;DHT22;20011;51.510;9.942;2022-09-12T04:54:24;13.20;99.90
33673;DHT22;20011;51.510;9.942;2022-09-12T04:56:51;13.10;99.90
33673;DHT22;20011;51.510;9.942;2022-09-12T04:59:21;13.20;99.90
33673;DHT22;20011;51.510;9.942;2022-09-12T05:01:48;13.20;99.90
33673;DHT22;20011;51.510;9.942;2022-09-12T05:04:15;13.20;99.90
33673;DHT22;20011;51.510;9.942;2022-09-12T05:06:42;13.20;99.90
33673;DHT22;20011;51.510;9.942;2022-09-12T05:09:10;13.20;99.90
33673;DHT22;20011;51.510;9.942;2022-09-12T05:11:39;13.30;99.90
33673;DHT22;20011;51.510;9.942;2022-09-12T05:14:26;13.30;99.90
33673;DHT22;20011;51.510;9.942;2022-09-12T05:16:54;13.30;99.90
33673;DHT22;20011;51.510;9.942;2022-09-12T05:19:26;13.40;99.90
33673;DHT22;20011;51.510;9.942;2022-09-12T05:21:53;13.40;99.90
33673;DHT22;20011;51.510;9.942;2022-09-12T05:24:20;13.40;99.90
33673;DHT22;20011;51.510;9.942;2022-09-12T05:26:47;13.50;99.90
33673;DHT22;20011;51.510;9.942;2022-09-12T05:29:13;13.50;99.90
33673;DHT22;20011;51.510;9.942;2022-09-12T05:31:40;13.40;99.90
33673;DHT22;20011;51.510;9.942;2022-09-12T05:34:07;13.50;99.90
33673;DHT22;20011;51.510;9.942;2022-09-12T05:36:36;13.40;99.90
33673;DHT22;20011;51.510;9.942;2022-09-12T05:39:04;13.40;99.90
33673;DHT22;20011;51.510;9.942;2022-09-12T05:41:32;13.50;99.90
33673;DHT22;20011;51.510;9.942;2022-09-12T05:44:05;13.50;99.90
33673;DHT22;20011;51.510;9.942;2022-09-12T05:46:41;13.50;99.90
33673;DHT22;20011;51.510;9.942;2022-09-12T05:49:11;13.60;99.90
33673;DHT22;20011;51.510;9.942;2022-09-12T05:51:41;13.60;99.90
33673;DHT22;20011;51.510;9.942;2022-09-12T05:54:10;13.60;99.90
33673;DHT22;20011;51.510;9.942;2022-09-12T05:56:39;13.60;99.90
33673;DHT22;20011;51.510;9.942;2022-09-12T05:59:13;13.50;99.90
33673;DHT22;20011;51.510;9.942;2022-09-12T06:01:41;13.50;99.90
33673;DHT22;20011;51.510;9.942;2022-09-12T06:04:08;13.50;99.90
33673;DHT22;20011;51.510;9.942;2022-09-12T06:06:39;13.50;99.90
33673;DHT22;20011;51.510;9.942;2022-09-12T06:09:07;13.40;99.90
33673;DHT22;20011;51.510;9.942;2022-09-12T06:11:36;13.50;99.90
33673;DHT22;20011;51.510;9.942;2022-09-12T06:14:04;13.50;99.90
33673;DHT22;20011;51.510;9.942;2022-09-12T06:16:33;13.50;99.90
33673;DHT22;20011;51.510;9.942;2022-09-12T06:19:05;13.50;99.90
33673;DHT22;20011;51.510;9.942;2022-09-12T06:21:33;13.60;99.90
33673;DHT22;20011;51.510;9.942;2022-09-12T06:24:03;13.50;99.90
33673;DHT22;20011;51.510;9.942;2022-09-12T06:26:30;13.50;99.90
33673;DHT22;20011;51.510;9.942;2022-09-12T06:28:59;13.60;99.90
33673;DHT22;20011;51.510;9.942;2022-09-12T06:31:31;13.70;99.90
33673;DHT22;20011;51.510;9.942;2022-09-12T06:34:01;13.70;99.90
33673;DHT22;20011;51.510;9.942;2022-09-12T06:36:30;13.80;99.90
33673;DHT22;20011;51.510;9.942;2022-09-12T06:39:15;13.80;99.90
33673;DHT22;20011;51.510;9.942;2022-09-12T06:41:43;13.80;99.90
33673;DHT22;20011;51.510;9.942;2022-09-12T06:44:14;13.80;99.90
33673;DHT22;20011;51.510;9.942;2022-09-12T06:46:42;13.80;99.90
33673;DHT22;20011;51.510;9.942;2022-09-12T06:49:10;13.80;99.90
33673;DHT22;20011;51.510;9.942;2022-09-12T06:51:37;13.90;99.90
33673;DHT22;20011;51.510;9.942;2022-09-12T06:54:04;13.90;99.90
33673;DHT22;20011;51.510;9.942;2022-09-12T06:56:31;13.90;99.90
33673;DHT22;20011;51.510;9.942;2022-09-12T06:58:58;13.90;99.90
33673;DHT22;20011;51.510;9.942;2022-09-12T07:01:27;14.00;99.90
33673;DHT22;20011;51.510;9.942;2022-09-12T07:03:57;14.00;99.90
33673;DHT22;20011;51.510;9.942;2022-09-12T07:06:36;14.10;99.90
33673;DHT22;20011;51.510;9.942;2022-09-12T07:09:06;14.20;99.90
33673;DHT22;20011;51.510;9.942;2022-09-12T07:11:35;14.30;99.90
33673;DHT22;20011;51.510;9.942;2022-09-12T07:14:05;14.30;99.90
33673;DHT22;20011;51.510;9.942;2022-09-12T07:16:34;14.30;99.90
33673;DHT22;20011;51.510;9.942;2022-09-12T07:19:02;14.30;99.90
33673;DHT22;20011;51.510;9.942;2022-09-12T07:21:29;14.40;99.90
33673;DHT22;20011;51.510;9.942;2022-09-12T07:23:57;14.40;99.90
33673;DHT22;20011;51.510;9.942;2022-09-12T07:26:27;14.50;99.90
33673;DHT22;20011;51.510;9.942;2022-09-12T07:28:56;14.50;99.90
33673;DHT22;20011;51.510;9.942;2022-09-12T07:31:44;14.60;99.90
33673;DHT22;20011;51.510;9.942;2022-09-12T07:34:11;14.60;99.90
33673;DHT22;20011;51.510;9.942;2022-09-12T07:36:37;14.70;99.90
33673;DHT22;20011;51.510;9.942;2022-09-12T07:39:04;14.70;99.90
33673;DHT22;20011;51.510;9.942;2022-09-12T07:41:32;14.70;99.90
33673;DHT22;20011;51.510;9.942;2022-09-12T07:44:02;14.80;99.90
33673;DHT22;20011;51.510;9.942;2022-09-12T07:46:31;14.80;99.90
33673;DHT22;20011;51.510;9.942;2022-09-12T07:48:59;15.00;99.90
33673;DHT22;20011;51.510;9.942;2022-09-12T07:51:27;14.90;99.90
33673;DHT22;20011;51.510;9.942;2022-09-12T07:53:55;15.00;99.90
33673;DHT22;20011;51.510;9.942;2022-09-12T07:56:23;15.00;99.90
33673;DHT22;20011;51.510;9.942;2022-09-12T07:58:55;15.10;99.90
33673;DHT22;20011;51.510;9.942;2022-09-12T08:01:23;15.10;99.90
33673;DHT22;20011;51.510;9.942;2022-09-12T08:03:55;15.20;99.90
33673;DHT22;20011;51.510;9.942;2022-09-12T08:06:24;15.30;99.90
33673;DHT22;20011;51.510;9.942;2022-09-12T08:08:53;15.30;99.90
33673;DHT22;20011;51.510;9.942;2022-09-12T08:11:22;15.40;99.90
33673;DHT22;20011;51.510;9.942;2022-09-12T08:13:49;15.50;99.90
33673;DHT22;20011;51.510;9.942;2022-09-12T08:16:23;15.50;99.90
33673;DHT22;20011;51.510;9.942;2022-09-12T08:18:50;15.60;99.90
33673;DHT22;20011;51.510;9.942;2022-09-12T08:21:20;15.60;99.90
33673;DHT22;20011;51.510;9.942;2022-09-12T08:23:51;15.70;99.90
33673;DHT22;20011;51.510;9.942;2022-09-12T08:26:18;15.70;99.90
33673;DHT22;20011;51.510;9.942;2022-09-12T08:28:46;15.70;99.90
33673;DHT22;20011;51.510;9.942;2022-09-12T08:31:15;15.70;99.90
33673;DHT22;20011;51.510;9.942;2022-09-12T08:33:42;15.70;99.90
33673;DHT22;20011;51.510;9.942;2022-09-12T08:36:15;15.80;99.90
33673;DHT22;20011;51.510;9.942;2022-09-12T08:38:44;15.80;99.90
33673;DHT22;20011;51.510;9.942;2022-09-12T08:43:51;15.90;99.90
33673;DHT22;20011;51.510;9.942;2022-09-12T08:46:31;16.00;99.90
33673;DHT22;20011;51.510;9.942;2022-09-12T08:49:00;16.10;99.90
33673;DHT22;20011;51.510;9.942;2022-09-12T08:51:29;16.00;99.90
33673;DHT22;20011;51.510;9.942;2022-09-12T08:53:57;16.10;99.90
33673;DHT22;20011;51.510;9.942;2022-09-12T08:56:27;16.10;99.90
33673;DHT22;20011;51.510;9.942;2022-09-12T08:58:57;16.10;99.90
33673;DHT22;20011;51.510;9.942;2022-09-12T09:01:35;16.10;99.90
33673;DHT22;20011;51.510;9.942;2022-09-12T09:13:02;16.10;99.90
33673;DHT22;20011;51.510;9.942;2022-09-12T09:15:40;16.20;99.90
33673;DHT22;20011;51.510;9.942;2022-09-12T09:18:24;16.10;99.90
33673;DHT22;20011;51.510;9.942;2022-09-12T09:21:28;16.20;99.90
33673;DHT22;20011;51.510;9.942;2022-09-12T09:24:04;16.30;99.90
33673;DHT22;20011;51.510;9.942;2022-09-12T09:30:03;16.40;99.90
33673;DHT22;20011;51.510;9.942;2022-09-12T09:32:36;16.40;99.90
33673;DHT22;20011;51.510;9.942;2022-09-12T09:35:17;16.50;99.90
33673;DHT22;20011;51.510;9.942;2022-09-12T09:45:46;16.70;99.90
33673;DHT22;20011;51.510;9.942;2022-09-12T09:50:46;16.90;99.90
33673;DHT22;20011;51.510;9.942;2022-09-12T09:56:43;17.10;99.90
33673;DHT22;20011;51.510;9.942;2022-09-12T09:59:26;17.10;99.90
33673;DHT22;20011;51.510;9.942;2022-09-12T10:04:29;17.20;99.90
33673;DHT22;20011;51.510;9.942;2022-09-12T10:06:59;17.20;99.90
33673;DHT22;20011;51.510;9.942;2022-09-12T10:09:32;17.30;99.90
33673;DHT22;20011;51.510;9.942;2022-09-12T10:12:18;17.40;99.90
33673;DHT22;20011;51.510;9.942;2022-09-12T10:15:00;17.40;99.90
33673;DHT22;20011;51.510;9.942;2022-09-12T10:17:50;17.50;99.90
33673;DHT22;20011;51.510;9.942;2022-09-12T10:20:43;17.60;99.90
33673;DHT22;20011;51.510;9.942;2022-09-12T10:23:32;17.70;99.90
33673;DHT22;20011;51.510;9.942;2022-09-12T10:26:08;17.70;99.90
33673;DHT22;20011;51.510;9.942;2022-09-12T10:28:42;17.70;99.90
33673;DHT22;20011;51.510;9.942;2022-09-12T10:31:15;17.80;99.90
33673;DHT22;20011;51.510;9.942;2022-09-12T10:33:47;17.90;99.90
33673;DHT22;20011;51.510;9.942;2022-09-12T10:36:19;17.90;99.90
33673;DHT22;20011;51.510;9.942;2022-09-12T10:38:53;17.90;99.90
33673;DHT22;20011;51.510;9.942;2022-09-12T10:41:21;18.00;99.90
33673;DHT22;20011;51.510;9.942;2022-09-12T10:43:48;18.00;99.90
33673;DHT22;20011;51.510;9.942;2022-09-12T10:48:47;18.10;99.90
33673;DHT22;20011;51.510;9.942;2022-09-12T10:53:57;18.10;99.90
33673;DHT22;20011;51.510;9.942;2022-09-12T10:56:35;18.10;99.90
33673;DHT22;20011;51.510;9.942;2022-09-12T11:02:46;18.20;99.90
33673;DHT22;20011;51.510;9.942;2022-09-12T11:18:16;18.30;99.90
33673;DHT22;20011;51.510;9.942;2022-09-12T11:21:13;18.30;99.90
33673;DHT22;20011;51.510;9.942;2022-09-12T11:32:31;18.40;99.90
33673;DHT22;20011;51.510;9.942;2022-09-12T11:42:48;18.60;99.80
33673;DHT22;20011;51.510;9.942;2022-09-12T11:45:28;18.60;99.20
33673;DHT22;20011;51.510;9.942;2022-09-12T11:48:00;18.60;99.10
33673;DHT22;20011;51.510;9.942;2022-09-12T11:50:31;18.60;98.90
33673;DHT22;20011;51.510;9.942;2022-09-12T11:53:09;18.80;99.90
33673;DHT22;20011;51.510;9.942;2022-09-12T11:58:19;18.90;99.90
33673;DHT22;20011;51.510;9.942;2022-09-12T12:00:50;19.00;99.80
33673;DHT22;20011;51.510;9.942;2022-09-12T12:03:46;18.90;99.20
33673;DHT22;20011;51.510;9.942;2022-09-12T12:06:48;19.00;98.60
33673;DHT22;20011;51.510;9.942;2022-09-12T12:09:13;18.90;97.60
33673;DHT22;20011;51.510;9.942;2022-09-12T12:12:02;18.90;96.90
33673;DHT22;20011;51.510;9.942;2022-09-12T12:14:41;18.90;96.70
33673;DHT22;20011;51.510;9.942;2022-09-12T12:17:18;18.90;96.80
33673;DHT22;20011;51.510;9.942;2022-09-12T12:19:46;18.90;96.50
33673;DHT22;20011;51.510;9.942;2022-09-12T12:22:23;19.00;97.50
33673;DHT22;20011;51.510;9.942;2022-09-12T12:43:45;19.20;95.40
33673;DHT22;20011;51.510;9.942;2022-09-12T12:46:17;19.20;95.00
33673;DHT22;20011;51.510;9.942;2022-09-12T12:57:28;19.30;93.30
33673;DHT22;20011;51.510;9.942;2022-09-12T13:00:04;19.40;92.60
33673;DHT22;20011;51.510;9.942;2022-09-12T13:02:35;19.40;92.20
33673;DHT22;20011;51.510;9.942;2022-09-12T13:05:15;19.40;92.20
33673;DHT22;20011;51.510;9.942;2022-09-12T13:07:43;19.40;92.10
33673;DHT22;20011;51.510;9.942;2022-09-12T13:10:20;19.40;93.50
33673;DHT22;20011;51.510;9.942;2022-09-12T13:12:49;19.40;95.10
33673;DHT22;20011;51.510;9.942;2022-09-12T13:15:47;19.30;94.40
33673;DHT22;20011;51.510;9.942;2022-09-12T13:18:26;19.30;93.30
33673;DHT22;20011;51.510;9.942;2022-09-12T13:21:16;19.20;93.30
33673;DHT22;20011;51.510;9.942;2022-09-12T13:23:44;19.20;92.80
33673;DHT22;20011;51.510;9.942;2022-09-12T13:26:25;19.20;93.80
33673;DHT22;20011;51.510;9.942;2022-09-12T13:29:13;19.30;95.20
33673;DHT22;20011;51.510;9.942;2022-09-12T13:31:42;19.20;95.20
33673;DHT22;20011;51.510;9.942;2022-09-12T13:39:36;19.20;95.30
33673;DHT22;20011;51.510;9.942;2022-09-12T13:42:41;19.20;95.80
33673;DHT22;20011;51.510;9.942;2022-09-12T13:45:19;19.30;97.70
33673;DHT22;20011;51.510;9.942;2022-09-12T13:47:59;19.30;97.20
33673;DHT22;20011;51.510;9.942;2022-09-12T13:50:38;19.30;97.40
33673;DHT22;20011;51.510;9.942;2022-09-12T13:53:18;19.30;98.10
33673;DHT22;20011;51.510;9.942;2022-09-12T13:55:47;19.30;98.60
33673;DHT22;20011;51.510;9.942;2022-09-12T14:01:04;19.40;97.50
33673;DHT22;20011;51.510;9.942;2022-09-12T14:03:37;19.40;96.30
33673;DHT22;20011;51.510;9.942;2022-09-12T14:06:25;19.30;95.30
33673;DHT22;20011;51.510;9.942;2022-09-12T14:08:54;19.30;96.20
33673;DHT22;20011;51.510;9.942;2022-09-12T14:11:29;19.30;97.30
33673;DHT22;20011;51.510;9.942;2022-09-12T14:13:56;19.30;97.50
33673;DHT22;20011;51.510;9.942;2022-09-12T14:16:24;19.30;97.70
33673;DHT22;20011;51.510;9.942;2022-09-12T14:18:55;19.30;98.60
33673;DHT22;20011;51.510;9.942;2022-09-12T14:21:31;19.30;97.90
33673;DHT22;20011;51.510;9.942;2022-09-12T14:24:00;19.30;97.80
33673;DHT22;20011;51.510;9.942;2022-09-12T14:26:29;19.30;97.70
33673;DHT22;20011;51.510;9.942;2022-09-12T14:29:03;19.30;97.80
33673;DHT22;20011;51.510;9.942;2022-09-12T14:31:34;19.30;98.90
33673;DHT22;20011;51.510;9.942;2022-09-12T14:34:13;19.30;97.80
33673;DHT22;20011;51.510;9.942;2022-09-12T14:41:51;19.20;97.60
33673;DHT22;20011;51.510;9.942;2022-09-12T14:44:26;19.20;97.00
33673;DHT22;20011;51.510;9.942;2022-09-12T14:46:54;19.20;96.50
33673;DHT22;20011;51.510;9.942;2022-09-12T14:49:32;19.20;95.40
33673;DHT22;20011;51.510;9.942;2022-09-12T14:52:03;19.20;94.40
33673;DHT22;20011;51.510;9.942;2022-09-12T14:59:46;19.10;96.00
33673;DHT22;20011;51.510;9.942;2022-09-12T15:02:26;19.10;95.60
33673;DHT22;20011;51.510;9.942;2022-09-12T15:05:21;19.10;95.00
33673;DHT22;20011;51.510;9.942;2022-09-12T15:10:35;19.10;94.00
33673;DHT22;20011;51.510;9.942;2022-09-12T15:13:25;19.10;93.70
33673;DHT22;20011;51.510;9.942;2022-09-12T15:15:55;19.10;93.80
33673;DHT22;20011;51.510;9.942;2022-09-12T15:18:28;19.10;93.90
33673;DHT22;20011;51.510;9.942;2022-09-12T15:21:01;19.10;93.80
33673;DHT22;20011;51.510;9.942;2022-09-12T15:25:58;19.10;93.50
33673;DHT22;20011;51.510;9.942;2022-09-12T15:28:25;19.10;93.60
33673;DHT22;20011;51.510;9.942;2022-09-12T15:30:54;19.10;94.00
33673;DHT22;20011;51.510;9.942;2022-09-12T15:33:23;19.20;94.30
33673;DHT22;20011;51.510;9.942;2022-09-12T15:35:51;19.10;94.20
33673;DHT22;20011;51.510;9.942;2022-09-12T15:38:19;19.10;94.70
33673;DHT22;20011;51.510;9.942;2022-09-12T15:40:52;19.00;94.40
33673;DHT22;20011;51.510;9.942;2022-09-12T15:43:21;19.10;93.90
33673;DHT22;20011;51.510;9.942;2022-09-12T15:45:49;19.00;93.20
33673;DHT22;20011;51.510;9.942;2022-09-12T15:48:18;19.00;93.10
33673;DHT22;20011;51.510;9.942;2022-09-12T15:50:46;19.10;92.90
33673;DHT22;20011;51.510;9.942;2022-09-12T15:53:14;19.00;92.60
33673;DHT22;20011;51.510;9.942;2022-09-12T15:55:42;19.00;92.30
33673;DHT22;20011;51.510;9.942;2022-09-12T15:58:09;19.10;92.60
33673;DHT22;20011;51.510;9.942;2022-09-12T16:00:37;19.00;93.00
33673;DHT22;20011;51.510;9.942;2022-09-12T16:03:04;19.10;93.20
33673;DHT22;20011;51.510;9.942;2022-09-12T16:05:32;19.10;93.10
33673;DHT22;20011;51.510;9.942;2022-09-12T16:07:59;19.10;92.40
33673;DHT22;20011;51.510;9.942;2022-09-12T16:10:28;19.10;92.10
33673;DHT22;20011;51.510;9.942;2022-09-12T16:12:56;19.10;92.30
33673;DHT22;20011;51.510;9.942;2022-09-12T16:15:24;19.10;92.50
33673;DHT22;20011;51.510;9.942;2022-09-12T16:17:52;19.10;93.40
33673;DHT22;20011;51.510;9.942;2022-09-12T16:20:20;19.10;94.40
33673;DHT22;20011;51.510;9.942;2022-09-12T16:22:47;19.10;95.00
33673;DHT22;20011;51.510;9.942;2022-09-12T16:25:15;19.10;94.90
33673;DHT22;20011;51.510;9.942;2022-09-12T16:27:43;19.10;94.40
33673;DHT22;20011;51.510;9.942;2022-09-12T16:30:11;19.10;94.60
33673;DHT22;20011;51.510;9.942;2022-09-12T16:32:38;19.10;95.20
33673;DHT22;20011;51.510;9.942;2022-09-12T16:35:06;19.00;95.10
33673;DHT22;20011;51.510;9.942;2022-09-12T16:37:33;19.00;95.10
33673;DHT22;20011;51.510;9.942;2022-09-12T16:40:04;19.10;95.30
33673;DHT22;20011;51.510;9.942;2022-09-12T16:42:32;19.10;95.60
33673;DHT22;20011;51.510;9.942;2022-09-12T16:44:59;19.00;95.60
33673;DHT22;20011;51.510;9.942;2022-09-12T16:47:26;19.10;95.00
33673;DHT22;20011;51.510;9.942;2022-09-12T16:49:53;18.90;94.10
33673;DHT22;20011;51.510;9.942;2022-09-12T16:52:20;19.00;93.60
33673;DHT22;20011;51.510;9.942;2022-09-12T16:54:47;19.00;93.00
33673;DHT22;20011;51.510;9.942;2022-09-12T16:57:14;19.00;92.80
33673;DHT22;20011;51.510;9.942;2022-09-12T16:59:41;19.00;92.70
33673;DHT22;20011;51.510;9.942;2022-09-12T17:02:13;19.00;92.50
33673;DHT22;20011;51.510;9.942;2022-09-12T17:04:40;19.00;92.40
33673;DHT22;20011;51.510;9.942;2022-09-12T17:07:07;19.00;92.30
33673;DHT22;20011;51.510;9.942;2022-09-12T17:09:34;19.00;92.20
33673;DHT22;20011;51.510;9.942;2022-09-12T17:12:02;19.10;92.20
33673;DHT22;20011;51.510;9.942;2022-09-12T17:14:29;19.10;92.10
33673;DHT22;20011;51.510;9.942;2022-09-12T17:16:56;19.10;92.00
33673;DHT22;20011;51.510;9.942;2022-09-12T17:19:24;19.00;91.90
33673;DHT22;20011;51.510;9.942;2022-09-12T17:21:53;19.00;91.80
33673;DHT22;20011;51.510;9.942;2022-09-12T17:24:21;19.00;91.80
33673;DHT22;20011;51.510;9.942;2022-09-12T17:26:49;19.00;92.00
33673;DHT22;20011;51.510;9.942;2022-09-12T17:29:16;19.00;91.50
33673;DHT22;20011;51.510;9.942;2022-09-12T17:31:44;19.00;91.30
33673;DHT22;20011;51.510;9.942;2022-09-12T17:34:11;19.00;91.30
33673;DHT22;20011;51.510;9.942;2022-09-12T17:36:41;19.00;91.30
33673;DHT22;20011;51.510;9.942;2022-09-12T17:39:11;19.00;91.60
33673;DHT22;20011;51.510;9.942;2022-09-12T17:41:38;19.00;91.80
33673;DHT22;20011;51.510;9.942;2022-09-12T17:44:09;19.00;91.70
33673;DHT22;20011;51.510;9.942;2022-09-12T17:46:37;18.90;91.90
33673;DHT22;20011;51.510;9.942;2022-09-12T17:49:09;18.90;92.50
33673;DHT22;20011;51.510;9.942;2022-09-12T17:51:36;18.90;93.40
33673;DHT22;20011;51.510;9.942;2022-09-12T17:54:05;18.80;93.80
33673;DHT22;20011;51.510;9.942;2022-09-12T17:56:35;18.80;94.00
33673;DHT22;20011;51.510;9.942;2022-09-12T17:59:04;18.80;94.50
33673;DHT22;20011;51.510;9.942;2022-09-12T18:01:32;18.80;94.50
33673;DHT22;20011;51.510;9.942;2022-09-12T18:04:17;18.70;95.00
33673;DHT22;20011;51.510;9.942;2022-09-12T18:06:45;18.70;95.50
33673;DHT22;20011;51.510;9.942;2022-09-12T18:09:18;18.60;95.50
33673;DHT22;20011;51.510;9.942;2022-09-12T18:11:46;18.60;95.60
33673;DHT22;20011;51.510;9.942;2022-09-12T18:14:14;18.60;96.00
33673;DHT22;20011;51.510;9.942;2022-09-12T18:16:41;18.40;96.10
33673;DHT22;20011;51.510;9.942;2022-09-12T18:19:09;18.40;96.00
33673;DHT22;20011;51.510;9.942;2022-09-12T18:21:37;18.30;96.10
33673;DHT22;20011;51.510;9.942;2022-09-12T18:24:05;18.30;96.30
33673;DHT22;20011;51.510;9.942;2022-09-12T18:26:32;18.30;96.50
33673;DHT22;20011;51.510;9.942;2022-09-12T18:28:59;18.20;96.60
33673;DHT22;20011;51.510;9.942;2022-09-12T18:31:28;18.20;96.60
33673;DHT22;20011;51.510;9.942;2022-09-12T18:33:56;18.10;96.50
33673;DHT22;20011;51.510;9.942;2022-09-12T18:36:26;18.10;96.70
33673;DHT22;20011;51.510;9.942;2022-09-12T18:38:54;18.10;96.70
33673;DHT22;20011;51.510;9.942;2022-09-12T18:41:23;18.00;96.50
33673;DHT22;20011;51.510;9.942;2022-09-12T18:43:55;18.00;96.50
33673;DHT22;20011;51.510;9.942;2022-09-12T18:46:24;18.00;96.30
33673;DHT22;20011;51.510;9.942;2022-09-12T18:48:53;18.00;96.70